createdAt,value
2017-07-02T00:01:10.968Z,1004.85
2017-07-02T00:02:10.645Z,1004.87
2017-07-02T00:03:10.584Z,1004.86
2017-07-02T00:04:10.521Z,1004.85
2017-07-02T00:05:10.561Z,1004.86
2017-07-02T00:06:10.648Z,1004.86
2017-07-02T00:07:10.336Z,1004.84
2017-07-02T00:08:10.273Z,1004.87
2017-07-02T00:09:10.212Z,1004.87
2017-07-02T00:10:10.150Z,1004.91
2017-07-02T00:11:10.086Z,1004.92
2017-07-02T00:12:10.026Z,1004.91
2017-07-02T00:13:09.963Z,1004.91
2017-07-02T00:14:09.904Z,1004.89
2017-07-02T00:15:10.143Z,1004.9
2017-07-02T00:16:09.778Z,1004.95
2017-07-02T00:17:09.716Z,1004.97
2017-07-02T00:18:09.655Z,1004.96
2017-07-02T00:19:09.593Z,1004.99
2017-07-02T00:20:09.530Z,1004.95
2017-07-02T00:21:09.469Z,1004.95
2017-07-02T00:22:09.405Z,1004.94
2017-07-02T00:23:09.343Z,1004.94
2017-07-02T00:24:09.283Z,1004.92
2017-07-02T00:25:09.378Z,1004.94
2017-07-02T00:26:09.157Z,1004.96
2017-07-02T00:27:09.248Z,1004.91
2017-07-02T00:28:09.033Z,1004.92
2017-07-02T00:29:08.972Z,1004.89
2017-07-02T00:30:09.210Z,1004.91
2017-07-02T00:31:08.849Z,1004.89
2017-07-02T00:32:08.787Z,1004.91
2017-07-02T00:33:08.723Z,1004.89
2017-07-02T00:34:08.662Z,1004.89
2017-07-02T00:35:08.700Z,1004.9
2017-07-02T00:36:08.553Z,1004.89
2017-07-02T00:37:08.476Z,1004.88
2017-07-02T00:38:08.415Z,1004.88
2017-07-02T00:39:08.352Z,1004.9
2017-07-02T00:40:08.441Z,1004.88
2017-07-02T00:41:08.227Z,1004.9
2017-07-02T00:42:08.182Z,1004.89
2017-07-02T00:43:08.104Z,1004.85
2017-07-02T00:44:08.040Z,1004.87
2017-07-02T00:45:08.129Z,1004.85
2017-07-02T00:46:07.917Z,1004.85
2017-07-02T00:47:07.857Z,1004.84
2017-07-02T00:48:07.794Z,1004.84
2017-07-02T00:49:07.734Z,1004.85
2017-07-02T00:50:07.820Z,1004.83
2017-07-02T00:51:07.608Z,1004.84
2017-07-02T00:52:07.547Z,1004.85
2017-07-02T00:53:07.636Z,1004.84
2017-07-02T00:54:07.422Z,1004.87
2017-07-02T00:55:07.609Z,1004.89
2017-07-02T00:56:07.298Z,1004.9
2017-07-02T00:57:07.236Z,1004.91
2017-07-02T00:58:07.325Z,1004.9
2017-07-02T00:59:07.111Z,1004.95
2017-07-02T01:00:07.200Z,1004.93
2017-07-02T01:01:06.988Z,1004.97
2017-07-02T01:02:06.927Z,1004.94
2017-07-02T01:03:06.863Z,1004.96
2017-07-02T01:04:06.803Z,1004.97
2017-07-02T01:05:06.840Z,1004.97
2017-07-02T01:06:06.678Z,1004.99
2017-07-02T01:07:06.615Z,1004.98
2017-07-02T01:08:06.555Z,1004.98
2017-07-02T01:09:06.492Z,1004.99
2017-07-02T01:10:06.529Z,1004.96
2017-07-02T01:11:06.368Z,1005.03
2017-07-02T01:12:06.306Z,1004.99
2017-07-02T01:13:06.244Z,1005.02
2017-07-02T01:14:06.181Z,1005
2017-07-02T01:15:06.469Z,1004.99
2017-07-02T01:16:06.057Z,1005.04
2017-07-02T01:17:06.197Z,1005.03
2017-07-02T01:18:05.934Z,1005.05
2017-07-02T01:19:05.872Z,1005.04
2017-07-02T01:20:05.810Z,1005.04
2017-07-02T01:21:05.747Z,1005.04
2017-07-02T01:22:05.685Z,1005.04
2017-07-02T01:23:05.624Z,1005.07
2017-07-02T01:24:05.565Z,1005.09
2017-07-02T01:25:05.799Z,1005.09
2017-07-02T01:26:05.437Z,1005.1
2017-07-02T01:27:05.377Z,1005.11
2017-07-02T01:28:05.313Z,1005.15
2017-07-02T01:29:05.251Z,1005.14
2017-07-02T01:30:05.339Z,1005.16
2017-07-02T01:31:05.127Z,1005.16
2017-07-02T01:32:05.065Z,1005.13
2017-07-02T01:33:05.013Z,1005.11
2017-07-02T01:34:04.941Z,1005.15
2017-07-02T01:35:05.029Z,1005.15
2017-07-02T01:36:04.817Z,1005.19
2017-07-02T01:37:04.756Z,1005.15
2017-07-02T01:38:04.694Z,1005.18
2017-07-02T01:39:04.631Z,1005.17
2017-07-02T01:40:04.820Z,1005.18
2017-07-02T01:41:04.509Z,1005.19
2017-07-02T01:42:04.447Z,1005.18
2017-07-02T01:43:04.383Z,1005.16
2017-07-02T01:44:04.325Z,1005.2
2017-07-02T01:45:04.511Z,1005.19
2017-07-02T01:46:04.198Z,1005.14
2017-07-02T01:47:04.139Z,1005.14
2017-07-02T01:48:04.074Z,1005.13
2017-07-02T01:49:04.013Z,1005.14
2017-07-02T01:50:03.950Z,1005.14
2017-07-02T01:51:03.888Z,1005.17
2017-07-02T01:52:03.826Z,1005.19
2017-07-02T01:53:03.764Z,1005.19
2017-07-02T01:54:03.701Z,1005.15
2017-07-02T01:55:03.790Z,1005.16
2017-07-02T01:56:03.582Z,1005.19
2017-07-02T01:57:03.515Z,1005.18
2017-07-02T01:58:03.458Z,1005.18
2017-07-02T01:59:03.391Z,1005.22
2017-07-02T02:00:03.579Z,1005.23
2017-07-02T02:01:03.269Z,1005.23
2017-07-02T02:02:03.205Z,1005.21
2017-07-02T02:03:03.143Z,1005.21
2017-07-02T02:04:03.082Z,1005.24
2017-07-02T02:05:03.018Z,1005.25
2017-07-02T02:06:02.957Z,1005.26
2017-07-02T02:07:02.897Z,1005.27
2017-07-02T02:08:02.833Z,1005.24
2017-07-02T02:09:02.771Z,1005.24
2017-07-02T02:10:02.709Z,1005.29
2017-07-02T02:11:02.647Z,1005.29
2017-07-02T02:12:02.587Z,1005.31
2017-07-02T02:13:02.525Z,1005.29
2017-07-02T02:14:02.461Z,1005.25
2017-07-02T02:15:02.401Z,1005.26
2017-07-02T02:16:02.337Z,1005.29
2017-07-02T02:17:02.274Z,1005.26
2017-07-02T02:18:02.214Z,1005.28
2017-07-02T02:19:02.151Z,1005.34
2017-07-02T02:20:02.089Z,1005.32
2017-07-02T02:21:02.028Z,1005.33
2017-07-02T02:22:01.965Z,1005.33
2017-07-02T02:23:01.902Z,1005.34
2017-07-02T02:24:01.841Z,1005.36
2017-07-02T02:25:01.779Z,1005.37
2017-07-02T02:26:01.717Z,1005.36
2017-07-02T02:27:01.654Z,1005.4
2017-07-02T02:28:01.592Z,1005.42
2017-07-02T02:29:01.530Z,1005.44
2017-07-02T02:30:01.468Z,1005.43
2017-07-02T02:31:01.406Z,1005.43
2017-07-02T02:32:01.347Z,1005.42
2017-07-02T02:33:01.282Z,1005.42
2017-07-02T02:34:01.220Z,1005.49
2017-07-02T02:35:01.166Z,1005.47
2017-07-02T02:36:01.096Z,1005.45
2017-07-02T02:37:01.035Z,1005.46
2017-07-02T02:38:00.972Z,1005.47
2017-07-02T02:39:00.909Z,1005.47
2017-07-02T02:40:00.848Z,1005.46
2017-07-02T02:41:00.785Z,1005.46
2017-07-02T02:42:00.728Z,1005.48
2017-07-02T02:43:00.662Z,1005.51
2017-07-02T02:44:00.600Z,1005.52
2017-07-02T02:45:00.547Z,1005.51
2017-07-02T02:46:00.476Z,1005.5
2017-07-02T02:47:00.420Z,1005.53
2017-07-02T02:48:00.351Z,1005.55
2017-07-02T02:49:00.289Z,1005.5
2017-07-02T02:50:00.228Z,1005.62
2017-07-02T02:51:00.167Z,1005.62
2017-07-02T02:52:00.102Z,1005.59
2017-07-02T02:53:00.042Z,1005.59
2017-07-02T02:53:59.979Z,1005.59
2017-07-02T02:54:59.918Z,1005.6
2017-07-02T02:55:59.855Z,1005.58
2017-07-02T02:56:59.793Z,1005.65
2017-07-02T02:57:59.731Z,1005.65
2017-07-02T02:58:59.670Z,1005.66
2017-07-02T02:59:59.607Z,1005.68
2017-07-02T03:00:59.544Z,1005.73
2017-07-02T03:01:59.483Z,1005.75
2017-07-02T03:02:59.420Z,1005.75
2017-07-02T03:03:59.358Z,1005.75
2017-07-02T03:04:59.295Z,1005.77
2017-07-02T03:05:59.234Z,1005.76
2017-07-02T03:06:59.172Z,1005.79
2017-07-02T03:07:59.111Z,1005.8
2017-07-02T03:08:59.049Z,1005.78
2017-07-02T03:09:58.986Z,1005.83
2017-07-02T03:10:58.924Z,1005.81
2017-07-02T03:11:58.862Z,1005.88
2017-07-02T03:12:58.801Z,1005.87
2017-07-02T03:13:58.738Z,1005.86
2017-07-02T03:14:58.677Z,1005.93
2017-07-02T03:15:58.614Z,1005.9
2017-07-02T03:16:58.554Z,1005.92
2017-07-02T03:17:58.490Z,1005.96
2017-07-02T03:18:58.429Z,1005.98
2017-07-02T03:19:58.366Z,1006.05
2017-07-02T03:20:58.303Z,1006.04
2017-07-02T03:21:58.444Z,1006.05
2017-07-02T03:22:58.181Z,1006.09
2017-07-02T03:23:58.118Z,1006.11
2017-07-02T03:24:58.057Z,1006.14
2017-07-02T03:25:57.994Z,1006.15
2017-07-02T03:26:57.931Z,1006.2
2017-07-02T03:27:57.870Z,1006.2
2017-07-02T03:28:57.807Z,1006.19
2017-07-02T03:29:57.746Z,1006.17
2017-07-02T03:30:57.684Z,1006.25
2017-07-02T03:31:57.622Z,1006.22
2017-07-02T03:32:57.559Z,1006.23
2017-07-02T03:33:57.501Z,1006.27
2017-07-02T03:34:57.437Z,1006.31
2017-07-02T03:35:57.373Z,1006.3
2017-07-02T03:36:57.312Z,1006.36
2017-07-02T03:37:57.258Z,1006.43
2017-07-02T03:38:57.188Z,1006.4
2017-07-02T03:39:57.124Z,1006.44
2017-07-02T03:40:57.064Z,1006.43
2017-07-02T03:41:57.002Z,1006.44
2017-07-02T03:42:56.939Z,1006.44
2017-07-02T03:43:56.878Z,1006.44
2017-07-02T03:44:56.814Z,1006.45
2017-07-02T03:45:56.753Z,1006.45
2017-07-02T03:46:56.690Z,1006.45
2017-07-02T03:47:56.628Z,1006.49
2017-07-02T03:48:56.567Z,1006.52
2017-07-02T03:49:56.505Z,1006.48
2017-07-02T03:50:56.442Z,1006.55
2017-07-02T03:51:56.380Z,1006.53
2017-07-02T03:52:56.342Z,1006.51
2017-07-02T03:53:56.255Z,1006.55
2017-07-02T03:54:56.194Z,1006.55
2017-07-02T03:55:56.132Z,1006.56
2017-07-02T03:56:56.070Z,1006.58
2017-07-02T03:57:56.011Z,1006.59
2017-07-02T03:58:55.945Z,1006.64
2017-07-02T03:59:55.884Z,1006.66
2017-07-02T04:00:55.822Z,1006.69
2017-07-02T04:01:55.759Z,1006.66
2017-07-02T04:02:55.699Z,1006.65
2017-07-02T04:03:55.635Z,1006.7
2017-07-02T04:04:55.573Z,1006.76
2017-07-02T04:05:55.513Z,1006.76
2017-07-02T04:06:55.449Z,1006.74
2017-07-02T04:07:55.387Z,1006.75
2017-07-02T04:08:55.326Z,1006.82
2017-07-02T04:09:55.263Z,1006.83
2017-07-02T04:10:55.201Z,1006.85
2017-07-02T04:11:55.138Z,1006.88
2017-07-02T04:12:55.076Z,1006.88
2017-07-02T04:13:55.015Z,1006.82
2017-07-02T04:14:54.964Z,1006.84
2017-07-02T04:15:54.890Z,1006.87
2017-07-02T04:16:54.828Z,1006.93
2017-07-02T04:17:54.766Z,1006.92
2017-07-02T04:18:54.704Z,1006.98
2017-07-02T04:19:54.641Z,1007
2017-07-02T04:20:54.580Z,1006.97
2017-07-02T04:21:54.517Z,1006.96
2017-07-02T04:22:54.459Z,1007.01
2017-07-02T04:23:54.394Z,1007
2017-07-02T04:24:54.331Z,1007.06
2017-07-02T04:25:54.273Z,1007.03
2017-07-02T04:26:54.206Z,1006.99
2017-07-02T04:27:54.144Z,1007.05
2017-07-02T04:28:54.083Z,1007.1
2017-07-02T04:29:54.022Z,1007.09
2017-07-02T04:30:53.959Z,1007.1
2017-07-02T04:31:53.896Z,1007.07
2017-07-02T04:32:53.834Z,1007.11
2017-07-02T04:33:53.773Z,1007.11
2017-07-02T04:34:53.710Z,1007.16
2017-07-02T04:35:53.648Z,1007.14
2017-07-02T04:36:53.586Z,1007.17
2017-07-02T04:37:53.523Z,1007.12
2017-07-02T04:38:53.462Z,1007.13
2017-07-02T04:39:53.400Z,1007.16
2017-07-02T04:40:53.338Z,1007.18
2017-07-02T04:41:53.275Z,1007.17
2017-07-02T04:42:53.214Z,1007.16
2017-07-02T04:43:53.151Z,1007.22
2017-07-02T04:44:53.089Z,1007.21
2017-07-02T04:45:53.028Z,1007.2
2017-07-02T04:46:52.967Z,1007.21
2017-07-02T04:47:52.904Z,1007.26
2017-07-02T04:48:52.841Z,1007.25
2017-07-02T04:49:52.780Z,1007.26
2017-07-02T04:50:52.718Z,1007.29
2017-07-02T04:51:52.756Z,1007.25
2017-07-02T04:52:52.593Z,1007.3
2017-07-02T04:53:52.532Z,1007.26
2017-07-02T04:54:52.506Z,1007.27
2017-07-02T04:55:52.406Z,1007.27
2017-07-02T04:56:52.346Z,1007.3
2017-07-02T04:57:52.283Z,1007.31
2017-07-02T04:58:52.221Z,1007.31
2017-07-02T04:59:52.159Z,1007.31
2017-07-02T05:00:52.096Z,1007.36
2017-07-02T05:01:52.037Z,1007.35
2017-07-02T05:02:51.974Z,1007.38
2017-07-02T05:03:51.911Z,1007.32
2017-07-02T05:04:51.848Z,1007.37
2017-07-02T05:05:51.787Z,1007.39
2017-07-02T05:06:51.723Z,1007.38
2017-07-02T05:07:51.661Z,1007.39
2017-07-02T05:08:51.601Z,1007.41
2017-07-02T05:09:51.541Z,1007.45
2017-07-02T05:10:51.475Z,1007.47
2017-07-02T05:11:51.412Z,1007.46
2017-07-02T05:12:51.352Z,1007.45
2017-07-02T05:13:51.290Z,1007.49
2017-07-02T05:14:51.226Z,1007.49
2017-07-02T05:15:51.165Z,1007.52
2017-07-02T05:16:51.103Z,1007.53
2017-07-02T05:17:51.040Z,1007.57
2017-07-02T05:18:50.978Z,1007.56
2017-07-02T05:19:50.916Z,1007.54
2017-07-02T05:20:50.854Z,1007.59
2017-07-02T05:21:50.791Z,1007.62
2017-07-02T05:22:50.730Z,1007.58
2017-07-02T05:23:50.670Z,1007.61
2017-07-02T05:24:50.606Z,1007.62
2017-07-02T05:25:50.743Z,1007.63
2017-07-02T05:26:50.482Z,1007.67
2017-07-02T05:27:50.420Z,1007.67
2017-07-02T05:28:50.357Z,1007.63
2017-07-02T05:29:50.296Z,1007.7
2017-07-02T05:30:50.233Z,1007.68
2017-07-02T05:31:50.172Z,1007.73
2017-07-02T05:32:50.108Z,1007.73
2017-07-02T05:33:50.047Z,1007.74
2017-07-02T05:34:49.985Z,1007.77
2017-07-02T05:35:49.924Z,1007.76
2017-07-02T05:36:49.860Z,1007.78
2017-07-02T05:37:49.798Z,1007.78
2017-07-02T05:38:49.736Z,1007.83
2017-07-02T05:39:49.674Z,1007.81
2017-07-02T05:40:49.611Z,1007.84
2017-07-02T05:41:49.550Z,1007.88
2017-07-02T05:42:49.488Z,1007.87
2017-07-02T05:43:49.425Z,1007.9
2017-07-02T05:44:49.363Z,1007.8
2017-07-02T05:45:49.302Z,1007.86
2017-07-02T05:46:49.239Z,1007.88
2017-07-02T05:47:49.177Z,1007.87
2017-07-02T05:48:49.115Z,1007.85
2017-07-02T05:49:49.053Z,1007.84
2017-07-02T05:50:48.990Z,1007.88
2017-07-02T05:51:48.928Z,1007.85
2017-07-02T05:52:48.866Z,1007.92
2017-07-02T05:53:48.806Z,1007.95
2017-07-02T05:54:48.742Z,1007.93
2017-07-02T05:55:48.680Z,1007.94
2017-07-02T05:56:48.618Z,1007.92
2017-07-02T05:57:48.556Z,1007.95
2017-07-02T05:58:48.494Z,1007.96
2017-07-02T05:59:48.432Z,1007.99
2017-07-02T06:00:48.372Z,1008.01
2017-07-02T06:01:48.307Z,1008.01
2017-07-02T06:02:48.246Z,1008.03
2017-07-02T06:03:48.183Z,1008.07
2017-07-02T06:04:48.372Z,1008.02
2017-07-02T06:05:48.058Z,1008.04
2017-07-02T06:06:47.996Z,1008.08
2017-07-02T06:07:47.936Z,1008.1
2017-07-02T06:08:47.873Z,1008.12
2017-07-02T06:09:47.810Z,1008.14
2017-07-02T06:10:47.748Z,1008.16
2017-07-02T06:11:47.686Z,1008.16
2017-07-02T06:12:47.625Z,1008.22
2017-07-02T06:13:47.566Z,1008.25
2017-07-02T06:14:47.500Z,1008.28
2017-07-02T06:15:47.439Z,1008.23
2017-07-02T06:16:47.375Z,1008.19
2017-07-02T06:17:47.314Z,1008.27
2017-07-02T06:18:47.252Z,1008.21
2017-07-02T06:19:47.189Z,1008.24
2017-07-02T06:20:47.129Z,1008.31
2017-07-02T06:21:47.068Z,1008.3
2017-07-02T06:22:47.004Z,1008.33
2017-07-02T06:23:46.942Z,1008.36
2017-07-02T06:24:46.881Z,1008.35
2017-07-02T06:25:46.817Z,1008.34
2017-07-02T06:26:46.755Z,1008.41
2017-07-02T06:27:46.695Z,1008.4
2017-07-02T06:28:46.631Z,1008.43
2017-07-02T06:29:46.568Z,1008.46
2017-07-02T06:30:46.506Z,1008.43
2017-07-02T06:31:46.444Z,1008.4
2017-07-02T06:32:46.381Z,1008.43
2017-07-02T06:33:46.320Z,1008.48
2017-07-02T06:34:46.258Z,1008.44
2017-07-02T06:35:46.197Z,1008.49
2017-07-02T06:36:46.134Z,1008.49
2017-07-02T06:37:46.072Z,1008.51
2017-07-02T06:38:46.009Z,1008.5
2017-07-02T06:39:45.947Z,1008.52
2017-07-02T06:40:45.885Z,1008.51
2017-07-02T06:41:45.822Z,1008.51
2017-07-02T06:42:45.760Z,1008.51
2017-07-02T06:43:45.699Z,1008.54
2017-07-02T06:44:45.639Z,1008.54
2017-07-02T06:45:45.827Z,1008.61
2017-07-02T06:46:45.512Z,1008.62
2017-07-02T06:47:45.450Z,1008.59
2017-07-02T06:48:45.388Z,1008.61
2017-07-02T06:49:45.325Z,1008.61
2017-07-02T06:50:45.263Z,1008.62
2017-07-02T06:51:45.202Z,1008.66
2017-07-02T06:52:45.139Z,1008.65
2017-07-02T06:53:45.078Z,1008.64
2017-07-02T06:54:45.015Z,1008.67
2017-07-02T06:55:44.954Z,1008.65
2017-07-02T06:56:44.891Z,1008.72
2017-07-02T06:57:44.828Z,1008.68
2017-07-02T06:58:44.767Z,1008.7
2017-07-02T06:59:44.705Z,1008.76
2017-07-02T07:00:44.898Z,1008.72
2017-07-02T07:01:44.580Z,1008.73
2017-07-02T07:02:44.518Z,1008.69
2017-07-02T07:03:44.455Z,1008.69
2017-07-02T07:04:44.394Z,1008.71
2017-07-02T07:05:44.331Z,1008.76
2017-07-02T07:06:44.270Z,1008.71
2017-07-02T07:07:44.207Z,1008.72
2017-07-02T07:08:44.145Z,1008.73
2017-07-02T07:09:44.083Z,1008.75
2017-07-02T07:10:44.021Z,1008.74
2017-07-02T07:11:43.958Z,1008.76
2017-07-02T07:12:43.896Z,1008.79
2017-07-02T07:13:43.835Z,1008.78
2017-07-02T07:14:43.771Z,1008.84
2017-07-02T07:15:43.710Z,1008.86
2017-07-02T07:16:43.648Z,1008.86
2017-07-02T07:17:43.596Z,1008.82
2017-07-02T07:18:43.523Z,1008.79
2017-07-02T07:19:43.463Z,1008.85
2017-07-02T07:20:43.400Z,1008.86
2017-07-02T07:21:43.539Z,1008.84
2017-07-02T07:22:43.275Z,1008.82
2017-07-02T07:23:43.214Z,1008.82
2017-07-02T07:24:43.160Z,1008.8
2017-07-02T07:25:43.088Z,1008.81
2017-07-02T07:26:43.026Z,1008.82
2017-07-02T07:27:42.964Z,1008.86
2017-07-02T07:28:42.904Z,1008.85
2017-07-02T07:29:42.840Z,1008.87
2017-07-02T07:30:42.778Z,1008.85
2017-07-02T07:31:42.717Z,1008.84
2017-07-02T07:32:42.654Z,1008.83
2017-07-02T07:33:42.592Z,1008.85
2017-07-02T07:34:42.532Z,1008.86
2017-07-02T07:35:42.618Z,1008.87
2017-07-02T07:36:42.407Z,1008.88
2017-07-02T07:37:42.348Z,1008.86
2017-07-02T07:38:42.281Z,1008.9
2017-07-02T07:39:42.219Z,1008.95
2017-07-02T07:40:42.156Z,1008.88
2017-07-02T07:41:42.094Z,1008.92
2017-07-02T07:42:42.032Z,1008.91
2017-07-02T07:43:41.973Z,1008.89
2017-07-02T07:44:41.908Z,1008.9
2017-07-02T07:45:41.846Z,1008.97
2017-07-02T07:46:41.784Z,1008.95
2017-07-02T07:47:41.723Z,1008.93
2017-07-02T07:48:41.660Z,1008.96
2017-07-02T07:49:41.597Z,1009.03
2017-07-02T07:50:41.536Z,1009.02
2017-07-02T07:51:41.473Z,1009
2017-07-02T07:52:41.411Z,1008.98
2017-07-02T07:53:41.352Z,1008.99
2017-07-02T07:54:41.287Z,1008.98
2017-07-02T07:55:41.226Z,1008.96
2017-07-02T07:56:41.164Z,1008.95
2017-07-02T07:57:41.101Z,1008.96
2017-07-02T07:58:41.040Z,1008.97
2017-07-02T07:59:40.977Z,1008.94
2017-07-02T08:00:41.165Z,1008.98
2017-07-02T08:01:40.855Z,1008.98
2017-07-02T08:02:40.792Z,1008.96
2017-07-02T08:03:40.730Z,1008.98
2017-07-02T08:04:40.669Z,1008.97
2017-07-02T08:05:40.854Z,1009
2017-07-02T08:06:40.543Z,1008.97
2017-07-02T08:07:40.481Z,1009.04
2017-07-02T08:08:40.421Z,1009.01
2017-07-02T08:09:40.356Z,1008.96
2017-07-02T08:10:40.293Z,1009.05
2017-07-02T08:11:40.232Z,1009.05
2017-07-02T08:12:40.170Z,1009.05
2017-07-02T08:13:40.107Z,1009.09
2017-07-02T08:14:40.046Z,1009.09
2017-07-02T08:15:40.137Z,1009.11
2017-07-02T08:16:39.923Z,1009.18
2017-07-02T08:17:39.859Z,1009.13
2017-07-02T08:18:39.796Z,1009.21
2017-07-02T08:19:39.734Z,1009.17
2017-07-02T08:20:39.923Z,1009.25
2017-07-02T08:21:39.712Z,1009.15
2017-07-02T08:22:39.547Z,1009.19
2017-07-02T08:23:39.487Z,1009.16
2017-07-02T08:24:39.424Z,1009.28
2017-07-02T08:25:39.511Z,1009.22
2017-07-02T08:26:39.601Z,1009.2
2017-07-02T08:27:39.237Z,1009.29
2017-07-02T08:28:39.176Z,1009.24
2017-07-02T08:29:39.114Z,1009.24
2017-07-02T08:30:39.202Z,1009.25
2017-07-02T08:31:38.990Z,1009.19
2017-07-02T08:32:38.928Z,1009.22
2017-07-02T08:33:38.866Z,1009.21
2017-07-02T08:34:38.805Z,1009.26
2017-07-02T08:35:39.043Z,1009.32
2017-07-02T08:36:38.679Z,1009.29
2017-07-02T08:37:38.618Z,1009.29
2017-07-02T08:38:38.554Z,1009.25
2017-07-02T08:39:38.492Z,1009.33
2017-07-02T08:40:38.680Z,1009.37
2017-07-02T08:41:38.371Z,1009.31
2017-07-02T08:42:38.306Z,1009.39
2017-07-02T08:43:38.245Z,1009.4
2017-07-02T08:44:38.182Z,1009.43
2017-07-02T08:45:38.273Z,1009.39
2017-07-02T08:46:38.057Z,1009.4
2017-07-02T08:47:37.998Z,1009.41
2017-07-02T08:48:37.934Z,1009.47
2017-07-02T08:49:37.871Z,1009.43
2017-07-02T08:50:37.812Z,1009.41
2017-07-02T08:51:37.747Z,1009.51
2017-07-02T08:52:37.836Z,1009.44
2017-07-02T08:53:37.624Z,1009.46
2017-07-02T08:54:37.567Z,1009.41
2017-07-02T08:55:37.649Z,1009.41
2017-07-02T08:56:37.438Z,1009.44
2017-07-02T08:57:37.374Z,1009.46
2017-07-02T08:58:50.055Z,1009.5
2017-07-02T08:59:37.253Z,1009.45
2017-07-02T09:00:37.488Z,1009.44
2017-07-02T09:01:37.128Z,1009.42
2017-07-02T09:02:37.065Z,1009.51
2017-07-02T09:03:37.003Z,1009.45
2017-07-02T09:04:36.941Z,1009.45
2017-07-02T09:05:37.130Z,1009.5
2017-07-02T09:06:36.816Z,1009.47
2017-07-02T09:07:36.754Z,1009.5
2017-07-02T09:08:36.690Z,1009.52
2017-07-02T09:09:36.629Z,1009.51
2017-07-02T09:10:36.719Z,1009.53
2017-07-02T09:11:36.506Z,1009.53
2017-07-02T09:12:36.444Z,1009.58
2017-07-02T09:13:36.383Z,1009.56
2017-07-02T09:14:36.356Z,1009.57
2017-07-02T09:15:36.406Z,1009.62
2017-07-02T09:16:36.196Z,1009.61
2017-07-02T09:17:36.133Z,1009.57
2017-07-02T09:18:36.071Z,1009.63
2017-07-02T09:19:36.009Z,1009.53
2017-07-02T09:20:36.097Z,1009.5
2017-07-02T09:21:35.887Z,1009.54
2017-07-02T09:22:35.823Z,1009.56
2017-07-02T09:23:35.763Z,1009.57
2017-07-02T09:24:35.699Z,1009.61
2017-07-02T09:25:35.738Z,1009.61
2017-07-02T09:26:35.574Z,1009.63
2017-07-02T09:27:35.512Z,1009.62
2017-07-02T09:28:35.451Z,1009.62
2017-07-02T09:29:35.389Z,1009.6
2017-07-02T09:30:35.478Z,1009.61
2017-07-02T09:31:35.265Z,1009.63
2017-07-02T09:32:35.203Z,1009.65
2017-07-02T09:33:35.140Z,1009.63
2017-07-02T09:34:35.081Z,1009.69
2017-07-02T09:35:35.016Z,1009.69
2017-07-02T09:36:35.208Z,1009.72
2017-07-02T09:37:34.893Z,1009.76
2017-07-02T09:38:34.831Z,1009.74
2017-07-02T09:39:34.771Z,1009.74
2017-07-02T09:40:34.808Z,1009.71
2017-07-02T09:41:34.644Z,1009.68
2017-07-02T09:42:34.582Z,1009.71
2017-07-02T09:43:34.524Z,1009.68
2017-07-02T09:44:34.459Z,1009.71
2017-07-02T09:45:34.396Z,1009.71
2017-07-02T09:46:34.334Z,1009.71
2017-07-02T09:47:34.272Z,1009.7
2017-07-02T09:48:34.211Z,1009.72
2017-07-02T09:49:34.150Z,1009.72
2017-07-02T09:50:34.187Z,1009.71
2017-07-02T09:51:34.022Z,1009.72
2017-07-02T09:52:33.961Z,1009.69
2017-07-02T09:53:33.901Z,1009.66
2017-07-02T09:54:33.837Z,1009.72
2017-07-02T09:55:33.775Z,1009.63
2017-07-02T09:56:33.713Z,1009.64
2017-07-02T09:57:33.651Z,1009.62
2017-07-02T09:58:33.591Z,1009.64
2017-07-02T09:59:33.528Z,1009.68
2017-07-02T10:00:33.615Z,1009.67
2017-07-02T10:01:33.403Z,1009.7
2017-07-02T10:02:33.341Z,1009.68
2017-07-02T10:03:33.279Z,1009.66
2017-07-02T10:04:33.217Z,1009.65
2017-07-02T10:05:33.457Z,1009.64
2017-07-02T10:06:33.091Z,1009.62
2017-07-02T10:07:33.030Z,1009.66
2017-07-02T10:08:32.969Z,1009.64
2017-07-02T10:09:32.907Z,1009.69
2017-07-02T10:10:32.944Z,1009.63
2017-07-02T10:11:32.782Z,1009.61
2017-07-02T10:12:32.721Z,1009.58
2017-07-02T10:13:32.658Z,1009.61
2017-07-02T10:14:32.595Z,1009.6
2017-07-02T10:15:32.884Z,1009.57
2017-07-02T10:16:32.472Z,1009.63
2017-07-02T10:17:32.409Z,1009.6
2017-07-02T10:18:32.350Z,1009.62
2017-07-02T10:19:32.286Z,1009.64
2017-07-02T10:20:32.225Z,1009.59
2017-07-02T10:21:32.162Z,1009.61
2017-07-02T10:22:32.100Z,1009.63
2017-07-02T10:23:32.057Z,1009.64
2017-07-02T10:24:31.977Z,1009.6
2017-07-02T10:25:32.014Z,1009.61
2017-07-02T10:26:31.853Z,1009.66
2017-07-02T10:27:31.792Z,1009.7
2017-07-02T10:28:31.728Z,1009.67
2017-07-02T10:29:31.665Z,1009.65
2017-07-02T10:30:31.605Z,1009.68
2017-07-02T10:31:31.542Z,1009.66
2017-07-02T10:32:31.480Z,1009.66
2017-07-02T10:33:31.418Z,1009.6
2017-07-02T10:34:31.358Z,1009.56
2017-07-02T10:35:31.442Z,1009.58
2017-07-02T10:36:31.232Z,1009.58
2017-07-02T10:37:31.169Z,1009.6
2017-07-02T10:38:31.108Z,1009.58
2017-07-02T10:39:31.045Z,1009.57
2017-07-02T10:40:31.134Z,1009.54
2017-07-02T10:41:30.924Z,1009.46
2017-07-02T10:42:30.862Z,1009.5
2017-07-02T10:43:30.798Z,1009.53
2017-07-02T10:44:30.735Z,1009.49
2017-07-02T10:45:30.773Z,1009.49
2017-07-02T10:46:30.610Z,1009.55
2017-07-02T10:47:30.549Z,1009.53
2017-07-02T10:48:30.487Z,1009.46
2017-07-02T10:49:30.426Z,1009.54
2017-07-02T10:50:30.516Z,1009.5
2017-07-02T10:51:30.302Z,1009.51
2017-07-02T10:52:30.239Z,1009.52
2017-07-02T10:53:30.178Z,1009.52
2017-07-02T10:54:30.115Z,1009.57
2017-07-02T10:55:30.055Z,1009.55
2017-07-02T10:56:29.991Z,1009.58
2017-07-02T10:57:29.929Z,1009.58
2017-07-02T10:58:29.867Z,1009.54
2017-07-02T10:59:29.805Z,1009.59
2017-07-02T11:00:29.743Z,1009.57
2017-07-02T11:01:29.681Z,1009.56
2017-07-02T11:02:29.619Z,1009.62
2017-07-02T11:03:29.558Z,1009.66
2017-07-02T11:04:29.496Z,1009.65
2017-07-02T11:05:29.685Z,1009.64
2017-07-02T11:06:29.374Z,1009.64
2017-07-02T11:07:29.311Z,1009.7
2017-07-02T11:08:29.249Z,1009.66
2017-07-02T11:09:29.186Z,1009.68
2017-07-02T11:10:29.424Z,1009.69
2017-07-02T11:11:29.062Z,1009.67
2017-07-02T11:12:28.999Z,1009.71
2017-07-02T11:13:28.937Z,1009.7
2017-07-02T11:14:28.876Z,1009.72
2017-07-02T11:15:28.816Z,1009.74
2017-07-02T11:16:28.757Z,1009.71
2017-07-02T11:17:28.694Z,1009.72
2017-07-02T11:18:28.628Z,1009.71
2017-07-02T11:19:28.572Z,1009.73
2017-07-02T11:20:28.656Z,1009.67
2017-07-02T11:21:28.441Z,1009.7
2017-07-02T11:22:28.383Z,1009.72
2017-07-02T11:23:28.317Z,1009.73
2017-07-02T11:24:28.257Z,1009.74
2017-07-02T11:25:28.198Z,1009.79
2017-07-02T11:26:28.131Z,1009.76
2017-07-02T11:27:28.070Z,1009.72
2017-07-02T11:28:28.008Z,1009.79
2017-07-02T11:29:27.946Z,1009.81
2017-07-02T11:30:27.986Z,1009.78
2017-07-02T11:31:27.822Z,1009.8
2017-07-02T11:32:27.759Z,1009.83
2017-07-02T11:33:27.698Z,1009.86
2017-07-02T11:34:27.636Z,1009.84
2017-07-02T11:35:27.724Z,1009.87
2017-07-02T11:36:27.513Z,1009.87
2017-07-02T11:37:27.450Z,1009.86
2017-07-02T11:38:27.388Z,1009.89
2017-07-02T11:39:27.331Z,1009.88
2017-07-02T11:40:27.414Z,1009.85
2017-07-02T11:41:27.201Z,1009.85
2017-07-02T11:42:27.144Z,1009.86
2017-07-02T11:43:27.078Z,1009.85
2017-07-02T11:44:27.016Z,1009.89
2017-07-02T11:45:27.203Z,1009.87
2017-07-02T11:46:26.893Z,1009.88
2017-07-02T11:47:26.831Z,1009.86
2017-07-02T11:48:26.767Z,1009.9
2017-07-02T11:49:26.705Z,1009.9
2017-07-02T11:50:26.895Z,1009.89
2017-07-02T11:51:26.582Z,1009.91
2017-07-02T11:52:26.519Z,1009.94
2017-07-02T11:53:26.461Z,1009.88
2017-07-02T11:54:26.396Z,1009.95
2017-07-02T11:55:26.435Z,1009.92
2017-07-02T11:56:26.271Z,1009.93
2017-07-02T11:57:26.212Z,1009.91
2017-07-02T11:58:26.149Z,1009.93
2017-07-02T11:59:26.085Z,1009.92
2017-07-02T12:00:26.274Z,1009.91
2017-07-02T12:01:26.264Z,1009.93
2017-07-02T12:02:25.900Z,1009.93
2017-07-02T12:03:25.838Z,1009.94
2017-07-02T12:04:25.777Z,1009.94
2017-07-02T12:05:25.863Z,1009.92
2017-07-02T12:06:25.652Z,1009.88
2017-07-02T12:07:25.591Z,1009.91
2017-07-02T12:08:25.530Z,1009.89